Airfield :
LOGIN :

Register | Disclaimer

   EN    FR    IT 

 










Legend :    VFR   Marginal VFR   IFR   Intensive IFR   Very Intensive IFR
Visi :
Ceiling :
>= 8 km
>= 3000ft
5 to 8 km
1000 to 3000 ft
1500m to 5 km
500 to 1000 ft
800 to 1500m
200 to 500 ft
< 800m
< 200 ft
Symbols :   Thunderstorms  Fog  Heavy snow  Heavy precipitations  Wind > 20 kt
SIGMETs :     Misc.  Thunderstorms  Icing  Turbulence  Mountain Waves  Volcanic Ashes






- Airport Elevation : 1197 ft
- IATA code : SPM


ETAD - Spangdahlem Ab

CURRENT METAR :
  • 250255Z AUTO 05006KT 9999 CLR 16/11 A3000 RMK AO2 SLP146 T01560110 56007 $

EXPIRED METARs :
  • 250155Z AUTO 05005KT 9999 CLR 16/11 A3000 RMK AO2 SLP146 T01580110
  • 250055Z AUTO 05005KT 9999 CLR 17/11 A3000 RMK AO2 SLP146 T01650110 $
  • 242355Z AUTO 05006KT 9999 CLR 17/11 A3002 RMK AO2 SLP152 T01700113 10234 20170 58009 $
  • 242255Z AUTO 05005KT 9999 CLR 18/11 A3003 RMK AO2 SLP155 T01760112 402550117 $

TAF TAF ETAD
Valid from the 24 at 20:00 until the 26 at 02:00 UTC


242000Z 2420/2602 06006KT 9999 FEW060 QNH2990INS
TEMPO 2508/2516 08010G15KT SCT035 TX25/2514Z TN15/2504Z LAST NO AMDS AFT 2420 NEXT 2504



MET'MAP, your aeronautical weather chart ! - Copyright ORBIFLY December 2007 - Disclaimer

ORBIFLY MET'MAP TEAM :

Programming & Development : Alexandra Zaïnal
Original concept : Baudouin d'Aumeries
Technical & hardware support : Manuel Goepfert
Assistance : Marc-Olivier Méhu




SOURCES & CREDITS :

   NOAA